createdAt,value
2019-05-18T00:00:33.069Z,9.4
2019-05-18T00:02:35.609Z,9.5
2019-05-18T00:03:36.365Z,9.4
2019-05-18T00:04:37.761Z,9.4
2019-05-18T00:05:39.155Z,9.5
2019-05-18T00:11:46.201Z,9.4
2019-05-18T00:12:47.624Z,9.3
2019-05-18T00:16:51.772Z,9.3
2019-05-18T00:17:53.183Z,9.2
2019-05-18T00:21:57.979Z,9.3
2019-05-18T00:22:59.387Z,9.3
2019-05-18T00:24:00.165Z,9.3
2019-05-18T00:25:01.559Z,9.3
2019-05-18T00:26:02.984Z,9.3
2019-05-18T00:29:06.647Z,9.2
2019-05-18T00:30:08.039Z,9.2
2019-05-18T00:31:09.438Z,9.1
2019-05-18T00:32:10.842Z,9.1
2019-05-18T00:33:12.247Z,9.1
2019-05-18T00:35:16.584Z,9.1
2019-05-18T00:36:15.100Z,9.1
2019-05-18T00:37:16.493Z,9.1
2019-05-18T00:38:17.907Z,8.9
2019-05-18T00:42:22.700Z,8.8
2019-05-18T00:43:24.092Z,8.9
2019-05-18T00:44:24.858Z,8.8
2019-05-18T00:45:26.248Z,8.9
2019-05-18T00:47:40.651Z,8.9
2019-05-18T00:48:29.551Z,8.9
2019-05-18T00:51:33.208Z,8.8
2019-05-18T00:52:34.599Z,8.8
2019-05-18T00:54:36.495Z,8.7
2019-05-18T00:55:37.886Z,8.7
2019-05-18T00:56:39.283Z,8.6
2019-05-18T00:57:40.673Z,8.7
2019-05-18T00:58:42.083Z,8.7
2019-05-18T00:59:43.479Z,8.7
2019-05-18T01:00:44.879Z,8.7
2019-05-18T01:01:46.298Z,8.7
2019-05-18T01:02:47.692Z,8.7
2019-05-18T01:03:49.080Z,8.7
2019-05-18T01:04:49.861Z,8.7
2019-05-18T01:05:51.249Z,8.7
2019-05-18T01:06:52.642Z,8.7
2019-05-18T01:07:54.057Z,8.7
2019-05-18T01:08:55.458Z,8.7
2019-05-18T01:09:56.853Z,8.7
2019-05-18T01:10:58.319Z,8.7
2019-05-18T01:11:59.719Z,8.7
2019-05-18T01:13:01.126Z,8.7
2019-05-18T01:14:02.530Z,8.7
2019-05-18T01:19:07.873Z,8.7
2019-05-18T01:20:09.237Z,8.7
2019-05-18T01:21:10.626Z,8.6
2019-05-18T01:22:12.024Z,8.6
2019-05-18T01:23:13.453Z,8.6
2019-05-18T01:24:14.844Z,8.6
2019-05-18T01:25:15.612Z,8.6
2019-05-18T01:26:17.003Z,8.6
2019-05-18T01:27:18.393Z,8.5
2019-05-18T01:28:19.815Z,8.6
2019-05-18T01:30:22.345Z,8.6
2019-05-18T01:31:23.735Z,8.5
2019-05-18T01:35:27.902Z,8.4
2019-05-18T01:36:29.296Z,8.4
2019-05-18T01:38:31.828Z,8.4
2019-05-18T01:39:33.240Z,8.4
2019-05-18T01:40:34.629Z,8.3
2019-05-18T01:41:36.016Z,8.4
2019-05-18T01:42:37.424Z,8.4
2019-05-18T01:43:38.839Z,8.4
2019-05-18T01:44:40.230Z,8.3
2019-05-18T01:46:42.130Z,8.3
2019-05-18T01:47:43.517Z,8.3
2019-05-18T01:49:46.078Z,8.2
2019-05-18T01:53:50.876Z,8.1
2019-05-18T01:54:52.303Z,8.1
2019-05-18T01:55:53.063Z,8.1
2019-05-18T01:56:54.465Z,8.1
2019-05-18T01:57:55.854Z,8.2
2019-05-18T01:58:57.247Z,8.1
2019-05-18T01:59:58.674Z,8.1
2019-05-18T02:01:00.222Z,8.1
2019-05-18T02:02:01.614Z,8.1
2019-05-18T02:03:03.020Z,8.1
2019-05-18T02:04:04.438Z,8.1
2019-05-18T02:05:05.843Z,8
2019-05-18T02:06:06.598Z,8
2019-05-18T02:09:10.254Z,7.9
2019-05-18T02:10:11.655Z,7.9
2019-05-18T02:11:13.055Z,7.9
2019-05-18T02:12:14.448Z,7.9
2019-05-18T02:13:15.843Z,7.9
2019-05-18T02:14:17.261Z,7.9
2019-05-18T02:15:18.659Z,7.9
2019-05-18T02:16:19.438Z,7.8
2019-05-18T02:17:20.827Z,7.8
2019-05-18T02:18:28.923Z,7.8
2019-05-18T02:19:24.876Z,7.8
2019-05-18T02:20:24.303Z,7.7
2019-05-18T02:23:27.962Z,7.7
2019-05-18T02:24:29.379Z,7.7
2019-05-18T02:25:30.775Z,7.6
2019-05-18T02:26:31.548Z,7.7
2019-05-18T02:27:32.948Z,7.7
2019-05-18T02:28:34.352Z,7.6
2019-05-18T02:29:35.764Z,7.6
2019-05-18T02:30:37.161Z,7.6
2019-05-18T02:31:38.553Z,7.5
2019-05-18T02:32:39.952Z,7.6
2019-05-18T02:33:41.345Z,7.6
2019-05-18T02:34:42.754Z,7.7
2019-05-18T02:36:44.644Z,7.6
2019-05-18T02:37:46.034Z,7.6
2019-05-18T02:38:47.431Z,7.6
2019-05-18T02:39:48.838Z,7.6
2019-05-18T02:45:55.911Z,7.6
2019-05-18T02:46:56.674Z,7.6
2019-05-18T02:47:58.073Z,7.5
2019-05-18T02:48:59.481Z,7.5
2019-05-18T02:50:00.879Z,7.5
2019-05-18T02:52:03.346Z,7.6
2019-05-18T02:53:04.741Z,7.5
2019-05-18T02:54:06.133Z,7.5
2019-05-18T02:56:08.692Z,7.5
2019-05-18T02:57:09.442Z,7.5
2019-05-18T02:59:12.007Z,7.4
2019-05-18T03:03:16.794Z,7.4
2019-05-18T03:04:18.191Z,7.4
2019-05-18T03:07:21.224Z,7.3
2019-05-18T03:08:22.625Z,7.4
2019-05-18T03:10:25.155Z,7.4
2019-05-18T03:11:26.562Z,7.4
2019-05-18T03:12:27.958Z,7.4
2019-05-18T03:13:29.343Z,7.4
2019-05-18T03:14:30.740Z,7.4
2019-05-18T03:15:32.155Z,7.4
2019-05-18T03:16:33.558Z,7.4
2019-05-18T03:17:34.309Z,7.4
2019-05-18T03:18:35.712Z,7.4
2019-05-18T03:24:42.778Z,7.4
2019-05-18T03:25:44.202Z,7.4
2019-05-18T03:26:45.596Z,7.3
2019-05-18T03:27:46.357Z,7.3
2019-05-18T03:28:47.759Z,7.3
2019-05-18T03:29:49.167Z,7.3
2019-05-18T03:30:50.558Z,7.4
2019-05-18T03:34:55.364Z,7.4
2019-05-18T03:35:56.754Z,7.3
2019-05-18T03:36:58.143Z,7.3
2019-05-18T03:37:58.904Z,7.3
2019-05-18T03:41:02.585Z,7.3
2019-05-18T03:42:03.974Z,7.4
2019-05-18T03:43:05.376Z,7.3
2019-05-18T03:44:06.775Z,7.3
2019-05-18T03:45:08.195Z,7.4
2019-05-18T03:46:09.603Z,7.4
2019-05-18T03:47:10.977Z,7.4
2019-05-18T03:51:15.464Z,7.3
2019-05-18T03:52:16.864Z,7.4
2019-05-18T03:53:18.589Z,7.4
2019-05-18T03:54:18.986Z,7.3
2019-05-18T03:56:21.537Z,7.3
2019-05-18T03:57:22.930Z,7.3
2019-05-18T03:58:23.732Z,7.3
2019-05-18T04:01:27.403Z,7.3
2019-05-18T04:02:28.793Z,7.3
2019-05-18T04:03:30.191Z,7.3
2019-05-18T04:04:31.584Z,7.3
2019-05-18T04:05:32.984Z,7.3
2019-05-18T04:06:34.413Z,7.3
2019-05-18T04:07:35.814Z,7.2
2019-05-18T04:08:36.580Z,7.2
2019-05-18T04:09:37.972Z,7.2
2019-05-18T04:10:39.392Z,7.3
2019-05-18T04:11:40.806Z,7.2
2019-05-18T04:12:42.222Z,7.2
2019-05-18T04:13:43.593Z,7.2
2019-05-18T04:14:44.998Z,7.2
2019-05-18T04:15:46.390Z,7.2
2019-05-18T04:16:47.808Z,7.2
2019-05-18T04:17:49.196Z,7.1
2019-05-18T04:18:49.990Z,7.1
2019-05-18T04:19:51.350Z,7.2
2019-05-18T04:20:52.749Z,7.2
2019-05-18T04:22:55.294Z,7.2
2019-05-18T04:23:56.690Z,7.2
2019-05-18T04:27:00.373Z,7.2
2019-05-18T04:28:01.787Z,7.2
2019-05-18T04:32:05.944Z,7.3
2019-05-18T04:33:07.332Z,7.3
2019-05-18T04:34:08.729Z,7.3
2019-05-18T04:35:10.122Z,7.3
2019-05-18T04:36:11.559Z,7.3
2019-05-18T04:37:12.947Z,7.3
2019-05-18T04:38:14.339Z,7.3
2019-05-18T04:39:15.117Z,7.4
2019-05-18T04:40:16.507Z,7.4
2019-05-18T04:41:17.920Z,7.4
2019-05-18T04:45:22.713Z,7.5
2019-05-18T04:46:24.126Z,7.5
2019-05-18T04:48:26.644Z,7.6
2019-05-18T04:49:27.413Z,7.6
2019-05-18T04:52:31.077Z,7.7
2019-05-18T04:53:32.471Z,7.7
2019-05-18T04:54:33.877Z,7.8
2019-05-18T04:56:36.419Z,7.8
2019-05-18T04:59:38.771Z,7.9
2019-05-18T05:00:40.164Z,7.9
2019-05-18T05:01:41.606Z,8
2019-05-18T05:05:46.677Z,8.1
2019-05-18T05:06:48.114Z,8.2
2019-05-18T05:10:52.254Z,8.7
2019-05-18T05:11:53.688Z,8.9
2019-05-18T05:12:55.079Z,9.1
2019-05-18T05:13:56.481Z,9.3
2019-05-18T05:14:57.905Z,9.5
2019-05-18T05:18:01.593Z,10.3
2019-05-18T05:19:02.979Z,10.5
2019-05-18T05:20:03.295Z,10.8
2019-05-18T05:21:04.321Z,10.9
2019-05-18T05:22:05.725Z,11.2
2019-05-18T05:23:07.145Z,11.3
2019-05-18T05:24:08.539Z,11.4
2019-05-18T05:25:09.939Z,11.6
2019-05-18T05:26:11.326Z,11.8
2019-05-18T05:27:12.763Z,11.9
2019-05-18T05:28:14.153Z,12
2019-05-18T05:29:15.553Z,12.2
2019-05-18T05:30:16.324Z,12.4
2019-05-18T05:31:17.720Z,12.5
2019-05-18T05:32:19.141Z,12.8
2019-05-18T05:33:20.552Z,13.1
2019-05-18T05:34:21.952Z,13.2
2019-05-18T05:35:23.337Z,13.3
2019-05-18T05:40:28.642Z,14.3
2019-05-18T05:41:30.029Z,14.5
2019-05-18T05:42:31.452Z,14.5
2019-05-18T05:43:32.856Z,14.6
2019-05-18T05:44:34.252Z,14.7
2019-05-18T05:45:35.638Z,14.9
2019-05-18T05:46:37.522Z,15
2019-05-18T05:48:39.091Z,15.2
2019-05-18T05:49:40.488Z,15.2
2019-05-18T05:50:41.246Z,15.3
2019-05-18T05:51:42.645Z,15.3
2019-05-18T05:52:44.062Z,15.4
2019-05-18T05:53:45.466Z,15.5
2019-05-18T05:54:46.854Z,15.7
2019-05-18T05:55:48.249Z,15.9
2019-05-18T05:56:49.650Z,16
2019-05-18T05:57:51.075Z,16.1
2019-05-18T05:58:52.474Z,16.1
2019-05-18T05:59:53.861Z,16.1
2019-05-18T06:00:54.638Z,16.1
2019-05-18T06:01:56.038Z,16
2019-05-18T06:02:57.449Z,15.9
2019-05-18T06:07:02.234Z,15.7
2019-05-18T06:08:03.650Z,15.7
2019-05-18T06:09:05.050Z,15.6
2019-05-18T06:10:06.451Z,15.5
2019-05-18T06:11:07.206Z,15.4
2019-05-18T06:12:08.594Z,15.3
2019-05-18T06:13:10.026Z,15.2
2019-05-18T06:14:11.417Z,15.2
2019-05-18T06:15:12.813Z,15.1
2019-05-18T06:16:14.212Z,15.1
2019-05-18T06:17:15.600Z,14.9
2019-05-18T06:18:17.069Z,14.8
2019-05-18T06:19:18.442Z,14.7
2019-05-18T06:20:19.830Z,14.7
2019-05-18T06:21:20.592Z,14.6
2019-05-18T06:22:21.984Z,14.6
2019-05-18T06:23:23.394Z,14.5
2019-05-18T06:27:28.433Z,14.3
2019-05-18T06:28:29.853Z,14.2
2019-05-18T06:29:31.250Z,14.2
2019-05-18T06:30:32.638Z,14.2
2019-05-18T06:31:33.396Z,14.1
2019-05-18T06:34:37.077Z,13.9
2019-05-18T06:35:38.478Z,13.8
2019-05-18T06:36:39.870Z,13.9
2019-05-18T06:37:41.260Z,13.7
2019-05-18T06:38:42.658Z,13.7
2019-05-18T06:39:44.090Z,13.6
2019-05-18T06:40:45.484Z,13.6
2019-05-18T06:41:46.236Z,13.6
2019-05-18T06:42:47.632Z,13.6
2019-05-18T06:43:49.034Z,13.6
2019-05-18T06:45:51.568Z,13.5
2019-05-18T06:46:52.968Z,13.5
2019-05-18T06:51:58.829Z,13.4
2019-05-18T06:54:01.368Z,13.3
2019-05-18T06:55:02.768Z,13.3
2019-05-18T06:56:04.163Z,13.2
2019-05-18T06:57:05.563Z,13.2
2019-05-18T06:58:06.960Z,13.2
2019-05-18T06:59:08.368Z,13.2
2019-05-18T07:00:09.354Z,13.2
2019-05-18T07:02:11.308Z,13.3
2019-05-18T07:08:18.369Z,13.4
2019-05-18T07:09:19.781Z,13.6
2019-05-18T07:10:21.179Z,13.6
2019-05-18T07:11:22.568Z,13.6
2019-05-18T07:15:26.736Z,13.9
2019-05-18T07:16:28.127Z,13.8
2019-05-18T07:17:29.536Z,13.8
2019-05-18T07:18:30.927Z,13.8
2019-05-18T07:19:32.348Z,13.9
2019-05-18T07:20:33.746Z,13.9
2019-05-18T07:21:35.138Z,13.8
2019-05-18T07:22:35.773Z,13.8
2019-05-18T07:23:37.172Z,14
2019-05-18T07:24:38.033Z,14
2019-05-18T07:25:39.433Z,14.1
2019-05-18T07:28:43.100Z,14.3
2019-05-18T07:29:44.512Z,14.2
2019-05-18T07:30:45.964Z,14.2
2019-05-18T07:34:50.120Z,14.7
2019-05-18T07:35:51.516Z,14.7
2019-05-18T07:36:52.904Z,14.8
2019-05-18T07:37:54.304Z,14.9
2019-05-18T07:38:55.726Z,14.9
2019-05-18T07:39:57.139Z,14.8
2019-05-18T07:40:58.543Z,14.8
2019-05-18T07:41:59.937Z,14.8
2019-05-18T07:43:00.961Z,14.9
2019-05-18T07:44:02.353Z,14.9
2019-05-18T07:45:03.762Z,15
2019-05-18T07:46:08.215Z,15
2019-05-18T07:53:12.829Z,15.7
2019-05-18T07:55:15.360Z,16
2019-05-18T07:56:16.759Z,16.1
2019-05-18T07:57:18.153Z,16.2
2019-05-18T07:58:19.545Z,16.3
2019-05-18T07:59:20.951Z,16.4
2019-05-18T08:01:23.473Z,16.6
2019-05-18T08:02:24.872Z,16.5
2019-05-18T08:03:25.719Z,16.5
2019-05-18T08:04:27.134Z,16.5
2019-05-18T08:06:29.660Z,16.5
2019-05-18T08:07:31.047Z,16.5
2019-05-18T08:09:33.582Z,16.7
2019-05-18T08:10:34.988Z,16.8
2019-05-18T08:11:35.524Z,16.7
2019-05-18T08:12:36.919Z,16.7
2019-05-18T08:13:37.685Z,16.7
2019-05-18T08:14:39.131Z,16.7
2019-05-18T08:15:40.521Z,16.8
2019-05-18T08:16:41.923Z,17
2019-05-18T08:17:43.303Z,17
2019-05-18T08:19:45.860Z,17.3
2019-05-18T08:20:47.253Z,17.3
2019-05-18T08:21:53.018Z,17.4
2019-05-18T08:22:50.091Z,17.4
2019-05-18T08:23:50.844Z,17.4
2019-05-18T08:24:52.263Z,17.4
2019-05-18T08:25:53.663Z,17.6
2019-05-18T08:26:55.071Z,17.7
2019-05-18T08:27:56.383Z,17.8
2019-05-18T08:28:57.791Z,17.8
2019-05-18T08:29:59.191Z,17.8
2019-05-18T08:31:00.586Z,17.7
2019-05-18T08:32:01.993Z,17.4
2019-05-18T08:33:03.379Z,17.2
2019-05-18T08:34:04.205Z,17.1
2019-05-18T08:35:05.612Z,17
2019-05-18T08:36:07.013Z,17.1
2019-05-18T08:37:08.405Z,17.3
2019-05-18T08:38:09.809Z,17.4
2019-05-18T08:39:11.236Z,17.5
2019-05-18T08:41:13.776Z,17.4
2019-05-18T08:42:15.179Z,17.4
2019-05-18T08:43:16.575Z,17.4
2019-05-18T08:44:17.331Z,17.1
2019-05-18T08:45:18.736Z,16.9
2019-05-18T08:47:21.276Z,17
2019-05-18T08:48:22.673Z,16.9
2019-05-18T08:49:24.071Z,16.7
2019-05-18T08:50:25.512Z,16.8
2019-05-18T08:51:26.909Z,16.9
2019-05-18T08:52:28.312Z,17
2019-05-18T08:54:29.697Z,16.8
2019-05-18T08:55:31.134Z,16.9
2019-05-18T08:56:31.699Z,17
2019-05-18T08:57:33.106Z,17
2019-05-18T08:58:34.507Z,16.8
2019-05-18T08:59:35.903Z,16.6
2019-05-18T09:00:37.311Z,16.6
2019-05-18T09:01:38.709Z,16.4
2019-05-18T09:02:40.099Z,16.1
2019-05-18T09:03:41.508Z,16
2019-05-18T09:04:42.275Z,16
2019-05-18T09:05:43.716Z,16
2019-05-18T09:06:45.083Z,16.3
2019-05-18T09:07:46.497Z,16.6
2019-05-18T09:08:47.897Z,16.7
2019-05-18T09:10:50.438Z,16.9
2019-05-18T09:11:51.831Z,17.1
2019-05-18T09:12:53.222Z,17.3
2019-05-18T09:13:54.624Z,17.5
2019-05-18T09:16:57.662Z,17.2
2019-05-18T09:17:59.076Z,17
2019-05-18T09:19:00.164Z,16.8
2019-05-18T09:25:06.275Z,17.4
2019-05-18T09:26:07.692Z,17.6
2019-05-18T09:28:10.213Z,17.9
2019-05-18T09:29:11.611Z,18
2019-05-18T09:35:18.022Z,18.7
2019-05-18T09:36:19.455Z,18.7
2019-05-18T09:45:29.216Z,18.8
2019-05-18T09:46:30.611Z,18.9
2019-05-18T09:47:32.035Z,19.1
2019-05-18T09:48:33.434Z,19.1
2019-05-18T09:49:34.831Z,19.1
2019-05-18T09:50:36.231Z,19.2
2019-05-18T09:51:37.658Z,19.1
2019-05-18T09:52:45.172Z,18.8
2019-05-18T09:53:50.619Z,18.6
2019-05-18T09:56:41.903Z,19
2019-05-18T09:57:43.288Z,19
2019-05-18T09:58:44.690Z,19.1
2019-05-18T09:59:46.082Z,19.2
2019-05-18T10:00:47.474Z,19.3
2019-05-18T10:05:52.778Z,19.3
2019-05-18T10:06:54.248Z,19.3
2019-05-18T10:07:55.616Z,19.5
2019-05-18T10:08:57.022Z,19.6
2019-05-18T10:09:57.550Z,19.6
2019-05-18T10:10:58.981Z,19.7
2019-05-18T10:12:00.393Z,19.8
2019-05-18T10:13:01.806Z,19.7
2019-05-18T10:16:04.840Z,19.7
2019-05-18T10:17:06.254Z,19.8
2019-05-18T10:18:07.664Z,19.6
2019-05-18T10:19:09.058Z,19.7
2019-05-18T10:20:10.460Z,19.7
2019-05-18T10:21:11.888Z,19.8
2019-05-18T10:22:13.303Z,19.7
2019-05-18T10:23:14.730Z,19.7
2019-05-18T10:24:16.102Z,19.7
2019-05-18T10:25:17.496Z,19.7
2019-05-18T10:28:20.557Z,19.7
2019-05-18T10:32:25.338Z,19.6
2019-05-18T10:33:26.764Z,19.6
2019-05-18T10:34:28.171Z,19.4
2019-05-18T10:38:32.382Z,19.1
2019-05-18T10:39:33.767Z,19.1
2019-05-18T10:40:35.178Z,19.2
2019-05-18T10:42:37.720Z,19.2
2019-05-18T10:43:40.142Z,19.1
2019-05-18T10:44:40.233Z,19.3
2019-05-18T10:45:44.728Z,19.4
2019-05-18T10:46:42.029Z,19.4
2019-05-18T10:47:43.456Z,19.5
2019-05-18T10:48:44.852Z,19.5
2019-05-18T10:49:46.243Z,19.5
2019-05-18T10:50:47.644Z,19.3
2019-05-18T10:51:49.036Z,19.3
2019-05-18T10:52:50.466Z,19.3
2019-05-18T10:53:51.858Z,19.2
2019-05-18T10:54:53.259Z,19.2
2019-05-18T10:55:54.656Z,19.3
2019-05-18T10:56:55.425Z,19.3
2019-05-18T10:57:56.860Z,19.2
2019-05-18T10:58:58.250Z,19.2
2019-05-18T10:59:59.653Z,19.1
2019-05-18T11:01:01.050Z,19
2019-05-18T11:04:04.726Z,18.9
2019-05-18T11:05:06.123Z,19
2019-05-18T11:06:07.528Z,18.9
2019-05-18T11:07:08.290Z,18.9
2019-05-18T11:08:09.730Z,18.9
2019-05-18T11:09:11.121Z,18.8
2019-05-18T11:10:12.517Z,18.9
2019-05-18T11:11:13.925Z,18.8
2019-05-18T11:14:18.907Z,18.9
2019-05-18T11:15:18.359Z,19
2019-05-18T11:17:20.244Z,19.1
2019-05-18T11:18:21.636Z,19.2
2019-05-18T11:19:22.931Z,19.2
2019-05-18T11:20:24.320Z,19.1
2019-05-18T11:24:29.002Z,19
2019-05-18T11:25:30.399Z,18.9
2019-05-18T11:26:31.839Z,19
2019-05-18T11:27:32.579Z,19
2019-05-18T11:29:35.137Z,19.1
2019-05-18T11:30:35.802Z,19.2
2019-05-18T11:31:37.236Z,19.2
2019-05-18T11:34:40.907Z,19.2
2019-05-18T11:35:42.296Z,19.2
2019-05-18T11:36:43.707Z,19.3
2019-05-18T11:37:44.460Z,19.3
2019-05-18T11:38:45.860Z,19.4
2019-05-18T11:39:47.288Z,19.5
2019-05-18T11:40:48.684Z,19.5
2019-05-18T11:41:50.082Z,19.5
2019-05-18T11:42:51.489Z,19.3
2019-05-18T11:43:52.894Z,19.3
2019-05-18T11:44:54.295Z,19.4
2019-05-18T11:45:55.698Z,19.5
2019-05-18T11:46:57.082Z,19.4
2019-05-18T11:47:57.853Z,19.4
2019-05-18T11:48:59.278Z,19.3
2019-05-18T11:54:05.273Z,19.4
2019-05-18T11:55:06.665Z,19.4
2019-05-18T11:56:08.068Z,19.3
2019-05-18T11:57:09.475Z,19.4
2019-05-18T11:58:10.302Z,19.3
2019-05-18T11:59:14.855Z,19.3
2019-05-18T12:00:12.261Z,19.2
2019-05-18T12:01:13.653Z,19.2
2019-05-18T12:02:15.059Z,19.3
2019-05-18T12:03:16.458Z,19.3
2019-05-18T12:04:17.879Z,19.3
2019-05-18T12:05:19.279Z,19.3
2019-05-18T12:06:20.673Z,19.3
2019-05-18T12:09:23.755Z,19.4
2019-05-18T12:10:25.141Z,19.4
2019-05-18T12:11:26.574Z,19.5
2019-05-18T12:12:27.941Z,19.5
2019-05-18T12:13:29.351Z,19.3
2019-05-18T12:15:31.906Z,19.3
2019-05-18T12:16:33.304Z,19.4
2019-05-18T12:18:35.194Z,19.4
2019-05-18T12:19:36.607Z,19.5
2019-05-18T12:20:38.033Z,19.5
2019-05-18T12:21:39.422Z,19.6
2019-05-18T12:22:40.807Z,19.6
2019-05-18T12:23:42.229Z,19.6
2019-05-18T12:24:43.661Z,19.7
2019-05-18T12:25:45.052Z,19.6
2019-05-18T12:26:45.921Z,19.7
2019-05-18T12:27:47.347Z,19.7
2019-05-18T12:28:48.177Z,19.7
2019-05-18T12:29:49.632Z,19.7
2019-05-18T12:30:51.005Z,19.7
2019-05-18T12:31:52.403Z,19.8
2019-05-18T12:32:53.813Z,19.8
2019-05-18T12:33:55.204Z,19.9
2019-05-18T12:35:57.764Z,19.9
2019-05-18T12:39:00.792Z,19.8
2019-05-18T12:41:03.403Z,20
2019-05-18T12:42:07.397Z,20
2019-05-18T12:43:06.052Z,20
2019-05-18T12:44:07.450Z,19.9
2019-05-18T12:45:08.842Z,19.9
2019-05-18T12:46:10.268Z,19.8
2019-05-18T12:47:14.240Z,19.8
2019-05-18T12:48:12.915Z,19.8
2019-05-18T12:49:18.452Z,19.9
2019-05-18T12:50:14.795Z,19.9
2019-05-18T12:52:17.356Z,19.9
2019-05-18T12:54:29.006Z,19.9
2019-05-18T12:55:20.625Z,19.9
2019-05-18T12:59:24.806Z,19.9
2019-05-18T13:00:26.201Z,19.9
2019-05-18T13:05:32.161Z,19.8
2019-05-18T13:06:33.582Z,19.7
2019-05-18T13:07:34.982Z,19.7
2019-05-18T13:09:36.873Z,19.7
2019-05-18T13:11:39.435Z,19.7
2019-05-18T13:12:40.836Z,19.7
2019-05-18T13:13:42.230Z,19.8
2019-05-18T13:14:43.637Z,19.9
2019-05-18T13:17:47.318Z,19.9
2019-05-18T13:18:48.711Z,19.9
2019-05-18T13:21:51.760Z,19.9
2019-05-18T13:22:53.154Z,19.9
2019-05-18T13:23:54.552Z,20
2019-05-18T13:24:55.945Z,20
2019-05-18T13:25:57.366Z,19.9
2019-05-18T13:26:58.755Z,19.9
2019-05-18T13:28:00.155Z,19.9
2019-05-18T13:29:01.556Z,19.9
2019-05-18T13:30:02.320Z,19.8
2019-05-18T13:39:12.843Z,19.9
2019-05-18T13:40:13.623Z,19.9
2019-05-18T13:41:15.065Z,19.9
2019-05-18T13:44:18.721Z,19.9
2019-05-18T13:45:20.171Z,19.9
2019-05-18T13:46:21.554Z,19.9
2019-05-18T13:49:25.228Z,19.8
2019-05-18T13:50:26.189Z,19.8
2019-05-18T13:51:27.605Z,19.8
2019-05-18T13:52:29.001Z,19.8
2019-05-18T13:53:30.399Z,19.8
2019-05-18T13:54:31.797Z,19.8
2019-05-18T13:55:33.186Z,19.8
2019-05-18T13:56:34.600Z,19.8
2019-05-18T13:57:36.099Z,19.9
2019-05-18T13:58:37.498Z,19.9
2019-05-18T13:59:38.894Z,20
2019-05-18T14:00:39.656Z,19.9
2019-05-18T14:01:41.084Z,19.9
2019-05-18T14:02:42.479Z,20
2019-05-18T14:03:43.870Z,19.9
2019-05-18T14:04:45.267Z,19.8
2019-05-18T14:05:46.673Z,19.7
2019-05-18T14:06:48.099Z,19.7
2019-05-18T14:07:49.499Z,19.8
2019-05-18T14:08:50.898Z,19.8
2019-05-18T14:10:52.799Z,19.8
2019-05-18T14:11:54.242Z,19.8
2019-05-18T14:12:55.632Z,19.7
2019-05-18T14:17:00.458Z,19.7
2019-05-18T14:18:01.862Z,19.7
2019-05-18T14:19:03.254Z,19.8
2019-05-18T14:20:04.658Z,19.7
2019-05-18T14:21:05.416Z,19.6
2019-05-18T14:22:06.848Z,19.6
2019-05-18T14:23:08.240Z,19.7
2019-05-18T14:24:09.644Z,19.8
2019-05-18T14:25:19.058Z,19.7
2019-05-18T14:28:13.868Z,19.7
2019-05-18T14:29:15.275Z,19.8
2019-05-18T14:30:16.676Z,19.7
2019-05-18T14:31:17.438Z,19.8
2019-05-18T14:32:18.840Z,19.8
2019-05-18T14:33:20.266Z,19.8
2019-05-18T14:34:21.654Z,19.8
2019-05-18T14:35:23.070Z,19.8
2019-05-18T14:38:26.751Z,19.8
2019-05-18T14:39:28.143Z,19.9
2019-05-18T14:40:29.534Z,19.9
2019-05-18T14:41:30.287Z,19.9
2019-05-18T14:42:31.690Z,19.9
2019-05-18T14:43:33.142Z,19.8
2019-05-18T14:44:34.534Z,19.7
2019-05-18T14:45:35.919Z,19.6
2019-05-18T14:46:37.323Z,19.7
2019-05-18T14:47:38.748Z,19.7
2019-05-18T14:48:40.168Z,19.7
2019-05-18T14:51:43.184Z,19.6
2019-05-18T14:52:44.607Z,19.7
2019-05-18T14:53:46.001Z,19.7
2019-05-18T14:54:47.399Z,19.7
2019-05-18T14:55:48.791Z,19.8
2019-05-18T14:56:50.179Z,19.8
2019-05-18T14:57:51.693Z,19.8
2019-05-18T14:58:53.120Z,19.8
2019-05-18T14:59:54.524Z,19.8
2019-05-18T15:00:55.507Z,19.9
2019-05-18T15:01:56.278Z,19.7
2019-05-18T15:02:57.681Z,19.7
2019-05-18T15:03:59.075Z,19.7
2019-05-18T15:05:00.489Z,19.9
2019-05-18T15:06:01.886Z,19.9
2019-05-18T15:08:04.450Z,19.9
2019-05-18T15:09:05.857Z,19.9
2019-05-18T15:10:07.246Z,19.9
2019-05-18T15:12:09.137Z,19.9
2019-05-18T15:13:10.579Z,19.9
2019-05-18T15:14:11.978Z,19.9
2019-05-18T15:15:13.366Z,19.9
2019-05-18T15:16:14.758Z,19.9
2019-05-18T15:17:16.155Z,19.9
2019-05-18T15:18:17.566Z,19.9
2019-05-18T15:19:18.965Z,19.9
2019-05-18T15:20:20.362Z,19.9
2019-05-18T15:21:21.756Z,19.9
2019-05-18T15:22:22.531Z,19.8
2019-05-18T15:23:23.942Z,19.8
2019-05-18T15:26:27.594Z,19.7
2019-05-18T15:27:29.000Z,19.6
2019-05-18T15:29:31.547Z,19.5
2019-05-18T15:30:32.946Z,19.5
2019-05-18T15:31:34.347Z,19.5
2019-05-18T15:32:35.107Z,19.5
2019-05-18T15:34:37.714Z,19.4
2019-05-18T15:35:39.106Z,19.3
2019-05-18T15:36:40.497Z,19.3
2019-05-18T15:37:43.634Z,19.3
2019-05-18T15:42:47.160Z,19.2
2019-05-18T15:43:48.572Z,19.2
2019-05-18T15:47:53.352Z,19.1
2019-05-18T15:48:54.777Z,19.1
2019-05-18T15:49:56.175Z,19.1
2019-05-18T15:50:59.300Z,19.1
2019-05-18T15:51:58.764Z,19.1
2019-05-18T15:52:59.524Z,19.1
2019-05-18T15:54:00.951Z,19.1
2019-05-18T15:55:02.346Z,19.1
2019-05-18T15:56:06.091Z,19.1
2019-05-18T16:00:08.218Z,19.1
2019-05-18T16:01:09.626Z,19.1
2019-05-18T16:02:11.030Z,19.1
2019-05-18T16:03:11.787Z,19.1
2019-05-18T16:04:13.221Z,19.1
2019-05-18T16:05:14.610Z,19.1
2019-05-18T16:06:16.014Z,19.2
2019-05-18T16:07:17.403Z,19.2
2019-05-18T16:09:19.955Z,19.2
2019-05-18T16:10:21.343Z,19.2
2019-05-18T16:11:22.738Z,19.2
2019-05-18T16:12:24.143Z,19.2
2019-05-18T16:13:24.925Z,19.2
2019-05-18T16:16:28.589Z,19.2
2019-05-18T16:17:38.715Z,19.2
2019-05-18T16:18:30.609Z,19.2
2019-05-18T16:22:35.385Z,19.2
2019-05-18T16:23:35.702Z,19.2
2019-05-18T16:24:37.097Z,19.2
2019-05-18T16:27:40.760Z,19.3
2019-05-18T16:28:42.160Z,19.3
2019-05-18T16:29:43.566Z,19.3
2019-05-18T16:30:44.979Z,19.3
2019-05-18T16:31:46.363Z,19.3
2019-05-18T16:32:47.572Z,19.2
2019-05-18T16:33:48.357Z,19.3
2019-05-18T16:34:49.756Z,19.3
2019-05-18T16:35:51.143Z,19.3
2019-05-18T16:36:52.535Z,19.3
2019-05-18T16:37:53.778Z,19.3
2019-05-18T16:38:54.856Z,19.3
2019-05-18T16:39:56.248Z,19.3
2019-05-18T16:40:57.641Z,19.3
2019-05-18T16:41:59.037Z,19.2
2019-05-18T16:44:00.945Z,19.3
2019-05-18T16:45:02.350Z,19.2
2019-05-18T16:48:05.933Z,19.2
2019-05-18T16:49:07.349Z,19.3
2019-05-18T16:50:08.745Z,19.3
2019-05-18T16:51:10.147Z,19.3
2019-05-18T16:52:12.564Z,19.2
2019-05-18T16:53:12.948Z,19.3
2019-05-18T16:54:13.729Z,19.3
2019-05-18T16:55:14.313Z,19.3
2019-05-18T17:05:25.579Z,19.2
2019-05-18T17:06:26.979Z,19.2
2019-05-18T17:09:30.670Z,19.2
2019-05-18T17:15:36.309Z,19.1
2019-05-18T17:16:37.709Z,19.1
2019-05-18T17:24:47.077Z,18.9
2019-05-18T17:25:48.506Z,19
2019-05-18T17:28:52.179Z,18.9
2019-05-18T17:29:53.588Z,18.9
2019-05-18T17:30:57.733Z,18.9
2019-05-18T17:31:56.068Z,18.9
2019-05-18T17:32:57.466Z,18.9
2019-05-18T17:33:58.857Z,18.9
2019-05-18T17:36:00.881Z,18.8
2019-05-18T17:37:02.244Z,18.8
2019-05-18T17:40:05.915Z,18.8
2019-05-18T17:41:07.313Z,18.8
2019-05-18T17:42:08.704Z,18.8
2019-05-18T17:43:10.105Z,18.8
2019-05-18T17:44:11.512Z,18.8
2019-05-18T17:47:14.548Z,18.7
2019-05-18T17:48:15.948Z,18.7
2019-05-18T17:50:18.009Z,18.6
2019-05-18T17:51:19.403Z,18.6
2019-05-18T17:52:20.806Z,18.6
2019-05-18T17:53:22.223Z,18.6
2019-05-18T17:57:26.399Z,18.4
2019-05-18T17:58:27.797Z,18.4
2019-05-18T17:59:28.410Z,18.4
2019-05-18T18:01:30.927Z,18.4
2019-05-18T18:02:32.321Z,18.4
2019-05-18T18:04:34.917Z,18.3
2019-05-18T18:05:35.922Z,18.3
2019-05-18T18:07:38.496Z,18.3
2019-05-18T18:08:39.864Z,18.2
2019-05-18T18:09:41.285Z,18.2
2019-05-18T18:14:47.237Z,18.1
2019-05-18T18:15:47.995Z,18
2019-05-18T18:19:52.838Z,17.9
2019-05-18T18:20:54.246Z,17.8
2019-05-18T18:21:55.640Z,17.8
2019-05-18T18:22:57.034Z,17.8
2019-05-18T18:23:58.424Z,17.7
2019-05-18T18:24:59.845Z,17.7
2019-05-18T18:28:03.058Z,17.5
2019-05-18T18:29:04.472Z,17.5
2019-05-18T18:30:05.892Z,17.4
2019-05-18T18:31:07.282Z,17.4
2019-05-18T18:32:08.689Z,17.4
2019-05-18T18:34:11.214Z,17.3
2019-05-18T18:35:12.638Z,17.3
2019-05-18T18:36:13.412Z,17.3
2019-05-18T18:37:14.806Z,17.2
2019-05-18T18:38:16.210Z,17.2
2019-05-18T18:41:19.906Z,17.1
2019-05-18T18:42:21.300Z,17
2019-05-18T18:43:22.700Z,17
2019-05-18T18:49:29.144Z,16.7
2019-05-18T18:50:30.554Z,16.6
2019-05-18T18:51:31.956Z,16.6
2019-05-18T18:52:33.406Z,16.5
2019-05-18T18:53:34.807Z,16.5
2019-05-18T18:54:36.234Z,16.5
2019-05-18T18:55:37.662Z,16.4
2019-05-18T18:56:38.433Z,16.4
2019-05-18T18:57:41.553Z,16.3
2019-05-18T18:58:40.848Z,16.3
2019-05-18T18:59:42.251Z,16.3
2019-05-18T19:00:43.669Z,16.2
2019-05-18T19:01:45.061Z,16.2
2019-05-18T19:04:48.714Z,16.1
2019-05-18T19:05:50.145Z,16.1
2019-05-18T19:06:50.902Z,16.1
2019-05-18T19:07:52.298Z,16
2019-05-18T19:08:53.707Z,16
2019-05-18T19:09:55.112Z,16
2019-05-18T19:10:56.533Z,15.9
2019-05-18T19:11:57.943Z,15.8
2019-05-18T19:15:01.593Z,15.7
2019-05-18T19:16:03.017Z,15.7
2019-05-18T19:21:08.315Z,15.6